• Join FlightAware (Why Join?)
  • Login
  • US Flag 
05:56PM EDT


 

Airport Tracker/Info


-or-


 

Live Flight TrackerFlight Track Log ✈ SKW5604 ✈ 13-May-2013 ✈ KSFO - CYYC

Flight Track Log - Related Links

Times and Time Zones

All times are in EDT time to prevent confusion due to time zone crossing. See the SKW5604 flight status page for this flight to view local times or setup timezone preferences in your user account.

Time Position Orientation Groundspeed Altitude Reporting Facility
EDT Latitude Longitude Course Direction KTS MPH feet Rate Location/Type
03:10PM 37.6364 -122.3564 21° North 162 186 900  Level Oakland Center
03:11PM 37.6694 -122.3067 50° Northeast 190 219 2,800 1,980 Climbing Oakland Center
03:12PM 37.7144 -122.2472 46° Northeast 222 255 5,000 2,040 Climbing Oakland Center
03:13PM 37.7527 -122.3516 North  Level FlightAware Approximate
03:13PM 37.7906 -122.2361 North 274 315 7,100  Level Oakland Center
03:14PM 37.8963 -122.3500 North  Level FlightAware Approximate
03:14PM 37.8733 -122.2356 360° North 292 336 9,700  Level Oakland Center
03:15PM 38.0395 -122.3469 21° North  Level FlightAware Approximate
03:15PM 37.9611 -122.2364 360° North 314 361 11,900  Level Oakland Center
03:16PM 38.0486 -122.2119 12° North 325 374 14,400 2,340 Climbing Oakland Center
03:17PM 38.1575 -122.1664 18° North 343 395 16,700 1,980 Climbing Oakland Center
03:18PM 38.2539 -122.1267 18° North 362 417 18,500 1,620 Climbing Oakland Center
03:19PM 38.3542 -122.0844 18° North 379 436 20,100 1,740 Climbing Oakland Center
03:20PM 38.4594 -122.0408 18° North 395 455 22,100 1,560 Climbing Oakland Center
03:21PM 38.5672 -121.9967 18° North 404 465 23,400 1,500 Climbing Oakland Center
03:22PM 38.6956 -121.9433 18° North 423 487 25,200 1,500 Climbing Oakland Center
03:23PM 38.8114 -121.8936 18° North 433 498 26,500 1,260 Climbing Oakland Center
03:24PM 38.9314 -121.8447 18° North 446 513 27,800 1,200 Climbing Oakland Center
03:25PM 39.0531 -121.7933 18° North 455 524 29,000 1,200 Climbing Oakland Center
03:26PM 39.1769 -121.7394 19° North 465 535 30,300 1,020 Climbing Oakland Center
03:27PM 39.3011 -121.6883 18° North 468 539 31,200 780 Climbing Oakland Center
03:28PM 39.4281 -121.6333 19° North 477 549 32,000 780 Climbing Oakland Center
03:29PM 39.5650 -121.5742 18° North 488 562 32,800 960 Climbing Oakland Center
03:30PM 39.6928 -121.5183 19° North 489 563 34,000 540 Climbing Oakland Center
03:31PM 39.8200 -121.4625 19° North 487 560 34,000  Level Oakland Center
03:32PM 39.9467 -121.4086 18° North 483 556 34,000  Level Oakland Center
03:33PM 40.0750 -121.3514 19° North 487 560 34,100 540 Climbing Oakland Center
03:34PM 40.2292 -121.2864 18° North 488 562 35,200 900 Climbing Oakland Center
03:35PM 40.3550 -121.2317 18° North 484 557 36,000 360 Climbing Oakland Center
03:36PM 40.4833 -121.1753 18° North 485 558 36,000  Level Oakland Center
03:37PM 40.6147 -121.1161 19° North 480 552 36,000  Level Oakland Center
03:38PM 40.6672 -121.0936 18° North 486 559 36,000  Level Seattle Center
03:39PM 40.7939 -121.0361 19° North 483 556 36,000  Level Seattle Center
03:40PM 40.9225 -120.9789 19° North 488 562 36,000  Level Seattle Center
03:41PM 41.0781 -120.9092 19° North 493 567 36,000  Level Seattle Center
03:42PM 41.2075 -120.8522 18° North 492 566 36,000  Level Seattle Center
03:43PM 41.3369 -120.7939 19° North 492 566 36,000  Level Seattle Center
03:44PM 41.4700 -120.7342 19° North 496 571 36,000  Level Seattle Center
03:45PM 41.6000 -120.6744 19° North 504 580 36,000  Level Seattle Center
03:46PM 41.7300 -120.6131 19° North 499 574 36,000  Level Seattle Center
03:47PM 41.8614 -120.5522 19° North 500 575 36,000  Level Seattle Center
03:48PM 41.9933 -120.4908 19° North 502 578 36,000  Level Seattle Center
03:49PM 42.1244 -120.4297 19° North 501 577 36,000  Level Seattle Center
03:50PM 42.2547 -120.3692 19° North 499 574 36,000  Level Seattle Center
03:51PM 42.3836 -120.3089 19° North 494 568 36,000  Level Seattle Center
03:52PM 42.5403 -120.2353 19° North 497 572 36,000  Level Seattle Center
03:53PM 42.6700 -120.1731 19° North 497 572 36,000  Level Seattle Center
03:54PM 42.8008 -120.1108 19° North 499 574 36,000  Level Seattle Center
03:55PM 42.9350 -120.0475 19° North 507 583 36,000  Level Seattle Center
03:56PM 43.0675 -119.9817 20° North 508 585 36,000  Level Seattle Center
03:57PM 43.2028 -119.9164 19° North 513 590 36,000  Level Seattle Center
03:58PM 43.3428 -119.8481 20° North 517 595 36,000  Level Seattle Center
03:59PM 43.4786 -119.7806 20° North 518 596 36,000  Level Seattle Center
04:00PM 43.6144 -119.7147 19° North 519 597 36,000  Level Seattle Center
04:01PM 43.7503 -119.6486 19° North 519 597 36,000  Level Seattle Center
04:02PM 43.8856 -119.5822 19° North 518 596 36,000  Level Seattle Center
04:03PM 44.0214 -119.5158 19° North 519 597 36,000  Level Seattle Center
04:04PM 44.1542 -119.4489 20° North 513 590 36,000  Level Seattle Center
04:05PM 44.3153 -119.3681 20° North 514 592 36,000  Level Seattle Center
04:06PM 44.4472 -119.3014 20° North 511 588 36,000  Level Seattle Center
04:07PM 44.5789 -119.2353 20° North 508 585 36,000  Level Seattle Center
04:08PM 44.7117 -119.1675 20° North 510 587 36,000  Level Seattle Center
04:09PM 44.8461 -119.0992 20° North 515 593 36,000  Level Seattle Center
04:10PM 44.9825 -119.0297 20° North 522 601 36,000  Level Seattle Center
04:11PM 45.1192 -118.9586 20° North 525 604 36,000  Level Seattle Center
04:12PM 45.2547 -118.8892 20° North 523 602 36,000  Level Seattle Center
04:13PM 45.3906 -118.8175 20° North 523 602 36,000  Level Seattle Center
04:14PM 45.5550 -118.7311 20° North 523 602 36,000  Level Seattle Center
04:15PM 45.6922 -118.6583 20° North 528 608 36,000  Level Seattle Center
04:16PM 45.8286 -118.5775 22° Northeast 532 612 36,000  Level Seattle Center
04:17PM 45.9561 -118.5006 23° Northeast 536 617 36,000  Level Seattle Center
04:18PM 46.0931 -118.4200 22° Northeast 533 613 36,000  Level Seattle Center
04:19PM 46.2300 -118.3378 23° Northeast 533 613 36,000  Level Seattle Center
04:20PM 46.3669 -118.2567 22° Northeast 533 613 36,000  Level Seattle Center
04:22PM 46.5031 -118.1714 23° Northeast 535 616 36,000  Level Seattle Center
04:23PM 46.6672 -118.0725 22° Northeast 533 613 36,000  Level Seattle Center
04:24PM 46.8033 -117.9878 23° Northeast 532 612 36,000  Level Seattle Center
04:25PM 46.9397 -117.9036 23° Northeast 533 613 36,000  Level Seattle Center
04:26PM 47.0769 -117.8181 23° Northeast 534 615 36,000  Level Seattle Center
04:27PM 47.2150 -117.7325 23° Northeast 537 618 36,000  Level Seattle Center
04:28PM 47.3528 -117.6469 23° Northeast 537 618 36,000  Level Seattle Center
04:29PM 47.4922 -117.5589 23° Northeast 540 621 36,000  Level Seattle Center
04:30PM 47.6319 -117.4717 23° Northeast 539 620 36,000  Level Seattle Center
04:31PM 47.7717 -117.3817 23° Northeast 540 621 36,000  Level Seattle Center
04:32PM 47.9108 -117.2919 23° Northeast 541 623 36,000  Level Seattle Center
04:33PM 48.0475 -117.2039 23° Northeast 537 618 36,000  Level Seattle Center
04:34PM 48.1833 -117.1150 24° Northeast 532 612 36,000  Level Seattle Center
04:35PM 48.3192 -117.0258 24° Northeast 532 612 36,000  Level Seattle Center
04:36PM 48.4547 -116.9386 23° Northeast 531 611 36,000  Level Seattle Center
04:37PM 48.5900 -116.8478 24° Northeast 532 612 36,000  Level Seattle Center
04:38PM 48.7258 -116.7567 24° Northeast 534 615 36,000  Level Seattle Center
04:39PM 48.8667 -116.6167 33° Northeast 540 621 36,000  Level Vancouver Center
04:40PM 49.0000 -116.5167 26° Northeast 540 621 36,000  Level Vancouver Center
04:41PM 49.1333 -116.4000 30° Northeast 540 621 36,000  Level Vancouver Center
04:41PM 49.1667 -116.4167 342° North 540 621 36,000  Level Edmonton Center
04:42PM 49.2667 -116.3000 37° Northeast 540 621 36,000  Level Vancouver Center
04:43PM 49.4000 -116.2000 26° Northeast 540 621 36,000  Level Vancouver Center
04:44PM 49.5500 -116.0667 30° Northeast 540 621 36,000  Level Vancouver Center
04:45PM 49.6667 -115.9667 29° Northeast 540 621 36,000  Level Vancouver Center
04:46PM 49.8000 -115.8500 29° Northeast 530 610 36,000  Level Vancouver Center
04:47PM 49.9167 -115.7500 29° Northeast 540 621 36,000 -60 Level Vancouver Center
04:48PM 50.0667 -115.6167 30° Northeast 550 633 35,900 -1,500 Descending Vancouver Center
04:49PM 50.2000 -115.5167 26° Northeast 550 633 33,000 -3,000 Descending Vancouver Center
04:49PM 50.2167 -115.5333 327° Northwest 550 633 32,000 -3,000 Descending Edmonton Center
04:50PM 50.3500 -115.4333 26° Northeast 550 633 29,100 -3,000 Descending Edmonton Center
04:51PM 50.5000 -115.3000 29° Northeast 540 621 26,000 -3,120 Descending Edmonton Center
04:52PM 50.6167 -115.2000 29° Northeast 520 598 22,900 -3,360 Descending Edmonton Center
04:53PM 50.6667 -114.9833 70° East 510 587 20,400 -3,240 Descending Vancouver Center
04:54PM 50.7000 -114.8000 74° East 490 564 17,500 -2,760 Descending Vancouver Center
04:54PM 50.7167 -114.7833 32° Northeast 470 541 16,800 -1,860 Descending Edmonton Center
04:55PM 50.7333 -114.6000 82° East 420 483 15,100 -1,320 Descending Edmonton Center
04:56PM 50.7500 -114.4500 80° East 350 403 14,200 -900 Descending Edmonton Center
04:57PM 50.7500 -114.2833 90° East 330 380 13,300 -1,440 Descending Edmonton Center
04:58PM 50.7333 -114.1500 101° East 320 368 11,400 -1,800 Descending Edmonton Center
04:59PM 50.7333 -114.0167 90° East 310 357 9,800 -1,620 Descending Edmonton Center
05:00PM 50.7333 -113.8833 90° East 290 334 8,200 -900 Descending Edmonton Center
05:01PM 50.7667 -113.7833 62° Northeast 250 288 8,000 -540 Descending Edmonton Center
05:02PM 50.8167 -113.7167 40° Northeast 230 265 7,200 -900 Descending Edmonton Center
05:03PM 50.8833 -113.6667 25° Northeast 230 265 6,200 -600 Descending Edmonton Center
05:04PM 50.9333 -113.6833 348° North 210 242 6,000 -120 Descending Edmonton Center
05:05PM 50.9667 -113.7333 317° Northwest 200 230 6,000  Level Edmonton Center
05:06PM 51.0000 -113.8000 308° West 190 219 6,000 -180 Level Edmonton Center
05:07PM 51.0333 -113.8833 302° West 170 196 5,700 -600 Descending Edmonton Center
05:08PM 51.0500 -113.9500 292° West 140 161 4,900 -840 Descending Edmonton Center